createdAt,value
2023-04-12T00:01:32.531Z,4.77
2023-04-12T00:04:03.434Z,8.63
2023-04-12T00:06:33.320Z,4.13
2023-04-12T00:09:01.291Z,6.20
2023-04-12T00:11:29.461Z,8.30
2023-04-12T00:13:57.435Z,3.93
2023-04-12T00:16:25.542Z,6.43
2023-04-12T00:18:53.309Z,6.53
2023-04-12T00:21:23.886Z,4.80
2023-04-12T00:23:51.712Z,5.13
2023-04-12T00:26:21.003Z,8.60
2023-04-12T00:28:49.213Z,5.87
2023-04-12T00:31:17.013Z,5.37
2023-04-12T00:33:44.948Z,5.87
2023-04-12T00:36:12.816Z,3.63
2023-04-12T00:38:42.222Z,5.47
2023-04-12T00:41:10.068Z,9.13
2023-04-12T00:43:37.854Z,8.00
2023-04-12T00:46:06.042Z,7.43
2023-04-12T00:48:37.790Z,6.40
2023-04-12T00:51:07.919Z,6.07
2023-04-12T00:53:35.851Z,6.53
2023-04-12T00:56:05.595Z,8.53
2023-04-12T00:58:33.355Z,7.63
2023-04-12T01:01:01.185Z,6.47
2023-04-12T01:03:30.887Z,9.30
2023-04-12T01:06:09.578Z,6.30
2023-04-12T01:08:52.434Z,6.73
2023-04-12T01:11:31.504Z,5.07
2023-04-12T01:14:07.184Z,6.57
2023-04-12T01:16:41.074Z,4.40
2023-04-12T01:19:28.588Z,6.50
2023-04-12T01:22:11.554Z,3.73
2023-04-12T01:24:52.873Z,6.50
2023-04-12T01:27:35.729Z,6.73
2023-04-12T01:30:05.554Z,7.60
2023-04-12T01:32:35.500Z,7.63
2023-04-12T01:35:05.483Z,4.23
2023-04-12T01:37:33.282Z,4.37
2023-04-12T01:40:02.083Z,6.00
2023-04-12T01:42:31.382Z,6.93
2023-04-12T01:44:59.461Z,3.70
2023-04-12T01:47:28.122Z,3.53
2023-04-12T01:50:04.702Z,3.53
2023-04-12T01:52:37.546Z,3.60
2023-04-12T01:55:07.665Z,6.53
2023-04-12T01:57:38.965Z,6.47
2023-04-12T02:00:11.625Z,5.30
2023-04-12T02:02:39.986Z,7.03
2023-04-12T02:05:10.256Z,9.33
2023-04-12T02:07:38.228Z,5.47
2023-04-12T02:10:06.731Z,6.27
2023-04-12T02:12:35.823Z,9.03
2023-04-12T02:18:44.232Z,6.23
2023-04-12T02:21:11.961Z,7.73
2023-04-12T02:23:39.741Z,7.07
2023-04-12T02:26:07.792Z,6.00
2023-04-12T02:28:37.280Z,7.23
2023-04-12T02:31:05.801Z,9.00
2023-04-12T02:33:34.735Z,8.47
2023-04-12T02:36:03.431Z,7.07
2023-04-12T02:38:31.368Z,4.87
2023-04-12T02:40:59.104Z,4.07
2023-04-12T02:43:26.789Z,6.50
2023-04-12T02:45:55.853Z,6.07
2023-04-12T02:48:23.584Z,5.77
2023-04-12T02:50:51.322Z,6.63
2023-04-12T02:53:19.066Z,10.13
2023-04-12T02:55:46.783Z,9.83
2023-04-12T02:58:14.556Z,5.03
2023-04-12T03:00:43.825Z,6.57
2023-04-12T03:03:13.138Z,7.23
2023-04-12T03:05:40.971Z,7.97
2023-04-12T03:08:08.936Z,6.13
2023-04-12T03:10:36.642Z,4.73
2023-04-12T03:13:04.993Z,7.33
2023-04-12T03:15:32.880Z,4.97
2023-04-12T03:18:00.674Z,5.87
2023-04-12T03:20:29.904Z,5.77
2023-04-12T03:22:57.738Z,5.97
2023-04-12T03:25:25.596Z,6.27
2023-04-12T03:27:53.314Z,6.90
2023-04-12T03:30:21.109Z,13.70
2023-04-12T03:32:48.958Z,10.10
2023-04-12T03:35:16.735Z,9.73
2023-04-12T03:37:45.862Z,6.03
2023-04-12T03:40:14.527Z,9.67
2023-04-12T03:42:42.256Z,6.53
2023-04-12T03:45:10.432Z,10.47
2023-04-12T03:47:38.343Z,11.53
2023-04-12T03:50:12.321Z,10.77
2023-04-12T03:52:40.467Z,11.97
2023-04-12T03:55:11.891Z,10.83
2023-04-12T03:57:39.687Z,8.23
2023-04-12T04:00:09.633Z,13.03
2023-04-12T04:02:38.424Z,13.47
2023-04-12T04:05:07.065Z,12.20
2023-04-12T04:07:35.104Z,10.73
2023-04-12T04:10:02.955Z,10.07
2023-04-12T04:12:32.074Z,33.57
2023-04-12T04:14:59.806Z,11.70
2023-04-12T04:17:27.548Z,11.60
2023-04-12T04:19:55.328Z,13.40
2023-04-12T04:22:23.042Z,17.97
2023-04-12T04:24:51.648Z,21.80
2023-04-12T04:27:20.444Z,14.03
2023-04-12T04:29:51.151Z,14.30
2023-04-12T04:32:18.895Z,19.27
2023-04-12T04:34:46.666Z,42.20
2023-04-12T04:37:14.429Z,41.27
2023-04-12T04:39:42.185Z,34.73
2023-04-12T04:42:10.059Z,19.57
2023-04-12T04:44:40.250Z,18.40
2023-04-12T04:47:09.431Z,14.37
2023-04-12T04:49:38.064Z,12.83
2023-04-12T04:52:06.744Z,10.30
2023-04-12T04:54:34.573Z,11.03
2023-04-12T04:57:02.981Z,14.30
2023-04-12T04:59:31.179Z,9.13
2023-04-12T05:01:58.924Z,8.40
2023-04-12T05:04:28.148Z,11.33
2023-04-12T05:06:55.900Z,12.27
2023-04-12T05:09:23.631Z,6.60
2023-04-12T05:11:51.302Z,9.00
2023-04-12T05:14:19.386Z,6.37
2023-04-12T05:16:48.132Z,9.73
2023-04-12T05:19:15.864Z,8.40
2023-04-12T05:21:45.025Z,7.57
2023-04-12T05:24:13.142Z,5.17
2023-04-12T05:26:40.884Z,10.13
2023-04-12T05:29:08.745Z,10.20
2023-04-12T05:31:36.433Z,6.63
2023-04-12T05:34:04.208Z,5.63
2023-04-12T05:36:33.444Z,9.13
2023-04-12T05:39:02.563Z,11.37
2023-04-12T05:41:31.230Z,6.83
2023-04-12T05:43:58.925Z,23.60
2023-04-12T05:46:26.775Z,39.53
2023-04-12T05:48:54.737Z,33.27
2023-04-12T05:51:33.942Z,45.60
2023-04-12T05:54:10.681Z,8.43
2023-04-12T05:56:38.782Z,8.27
2023-04-12T05:59:07.223Z,10.47
2023-04-12T06:01:35.050Z,9.13
2023-04-12T06:04:04.068Z,5.00
2023-04-12T06:06:32.094Z,8.17
2023-04-12T06:09:00.669Z,8.33
2023-04-12T06:11:31.548Z,9.57
2023-04-12T06:13:59.384Z,8.60
2023-04-12T06:16:27.324Z,6.47
2023-04-12T06:18:55.303Z,12.30
2023-04-12T06:21:24.153Z,11.20
2023-04-12T06:23:51.968Z,10.17
2023-04-12T06:26:23.353Z,9.30
2023-04-12T06:28:52.685Z,8.57
2023-04-12T06:31:20.840Z,11.97
2023-04-12T06:33:50.446Z,9.60
2023-04-12T06:36:18.232Z,12.27
2023-04-12T06:38:46.044Z,12.73
2023-04-12T06:41:13.931Z,12.87
2023-04-12T06:43:41.715Z,11.97
2023-04-12T06:46:11.004Z,7.73
2023-04-12T06:48:38.646Z,18.73
2023-04-12T06:51:07.727Z,13.77
2023-04-12T06:53:35.827Z,6.10
2023-04-12T06:56:05.466Z,8.00
2023-04-12T06:58:33.165Z,5.43
2023-04-12T07:01:06.578Z,7.60
2023-04-12T07:03:35.978Z,9.93
2023-04-12T07:06:17.302Z,13.90
2023-04-12T07:08:52.146Z,7.83
2023-04-12T07:11:22.450Z,7.13
2023-04-12T07:13:51.071Z,9.93
2023-04-12T07:16:19.112Z,10.57
2023-04-12T07:18:48.526Z,3.80
2023-04-12T07:21:17.807Z,9.47
2023-04-12T07:23:46.531Z,6.47
2023-04-12T07:26:14.254Z,9.67
2023-04-12T07:28:41.989Z,6.40
2023-04-12T07:31:09.944Z,9.53
2023-04-12T07:33:39.422Z,8.50
2023-04-12T07:36:10.599Z,13.17
2023-04-12T07:38:38.410Z,4.80
2023-04-12T07:41:06.486Z,8.33
2023-04-12T07:43:34.282Z,6.20
2023-04-12T07:46:07.548Z,4.93
2023-04-12T07:48:35.676Z,4.37
2023-04-12T07:51:03.505Z,6.53
2023-04-12T07:53:32.776Z,7.03
2023-04-12T07:56:00.662Z,4.37
2023-04-12T07:58:28.429Z,3.80
2023-04-12T08:00:58.070Z,4.40
2023-04-12T08:03:28.073Z,9.67
2023-04-12T08:05:56.088Z,6.27
2023-04-12T08:08:24.237Z,5.50
2023-04-12T08:10:54.048Z,4.77
2023-04-12T08:13:22.115Z,4.77
2023-04-12T08:15:50.026Z,5.27
2023-04-12T08:18:17.776Z,3.17
2023-04-12T08:20:45.600Z,2.50
2023-04-12T08:23:13.525Z,5.73
2023-04-12T08:25:41.693Z,4.23
2023-04-12T08:28:10.863Z,6.63
2023-04-12T08:30:38.823Z,5.90
2023-04-12T08:33:06.600Z,5.80
2023-04-12T08:35:34.392Z,6.00
2023-04-12T08:38:07.975Z,4.37
2023-04-12T08:40:36.901Z,5.57
2023-04-12T08:43:09.810Z,14.40
2023-04-12T08:45:39.296Z,3.30
2023-04-12T08:48:07.373Z,4.53
2023-04-12T08:50:35.319Z,6.07
2023-04-12T08:53:04.049Z,6.07
2023-04-12T08:55:31.908Z,4.67
2023-04-12T08:58:00.877Z,4.73
2023-04-12T09:00:28.700Z,5.03
2023-04-12T09:02:58.288Z,7.57
2023-04-12T09:05:30.163Z,3.43
2023-04-12T09:07:58.096Z,2.57
2023-04-12T09:10:33.738Z,3.53
2023-04-12T09:13:01.713Z,2.57
2023-04-12T09:15:29.597Z,3.43
2023-04-12T09:18:07.327Z,7.87
2023-04-12T09:20:35.651Z,6.53
2023-04-12T09:23:21.000Z,5.57
2023-04-12T09:25:51.927Z,8.77
2023-04-12T09:28:25.646Z,6.70
2023-04-12T09:30:54.173Z,5.87
2023-04-12T09:33:33.245Z,3.30
2023-04-12T09:36:02.618Z,5.10
2023-04-12T09:38:30.907Z,7.23
2023-04-12T09:40:59.171Z,4.93
2023-04-12T09:43:40.230Z,2.10
2023-04-12T09:46:12.232Z,4.47
2023-04-12T09:48:42.179Z,5.47
2023-04-12T09:51:10.106Z,6.27
2023-04-12T09:53:43.426Z,3.53
2023-04-12T09:56:13.433Z,3.53
2023-04-12T09:58:41.726Z,3.73
2023-04-12T10:01:12.277Z,6.27
2023-04-12T10:03:41.659Z,8.47
2023-04-12T10:06:13.562Z,3.47
2023-04-12T10:08:42.871Z,5.83
2023-04-12T10:11:11.613Z,4.17
2023-04-12T10:13:40.661Z,7.03
2023-04-12T10:16:11.136Z,12.30
2023-04-12T10:18:41.322Z,4.30
2023-04-12T10:21:15.527Z,7.97
2023-04-12T10:23:45.483Z,4.33
2023-04-12T10:26:13.313Z,9.17
2023-04-12T10:28:46.747Z,4.37
2023-04-12T10:31:32.492Z,9.17
2023-04-12T10:34:03.738Z,6.50
2023-04-12T10:36:56.154Z,2.73
2023-04-12T10:39:38.919Z,8.70
2023-04-12T10:42:27.317Z,6.67
2023-04-12T10:45:00.376Z,4.37
2023-04-12T10:48:01.534Z,10.13
2023-04-12T10:50:32.208Z,5.13
2023-04-12T10:53:25.946Z,5.60
2023-04-12T10:55:54.054Z,5.13
2023-04-12T10:58:55.553Z,3.17
2023-04-12T11:01:23.540Z,5.57
2023-04-12T11:04:18.043Z,9.77
2023-04-12T11:07:02.725Z,5.67
2023-04-12T11:09:38.835Z,4.50
2023-04-12T11:12:14.401Z,5.13
2023-04-12T11:14:46.851Z,6.50
2023-04-12T11:17:25.421Z,7.20
2023-04-12T11:19:58.746Z,6.13
2023-04-12T11:22:30.039Z,4.77
2023-04-12T11:24:59.319Z,4.37
2023-04-12T11:27:28.564Z,5.07
2023-04-12T11:29:57.785Z,5.90
2023-04-12T11:32:27.528Z,5.63
2023-04-12T11:34:57.115Z,16.30
2023-04-12T11:37:26.889Z,7.00
2023-04-12T11:39:59.091Z,10.97
2023-04-12T11:42:28.850Z,8.80
2023-04-12T11:45:01.561Z,9.37
2023-04-12T11:47:32.983Z,12.37
2023-04-12T11:50:00.790Z,8.57
2023-04-12T11:52:30.582Z,5.13
2023-04-12T11:55:02.269Z,2.67
2023-04-12T11:57:31.087Z,6.17
2023-04-12T12:00:00.136Z,8.70
2023-04-12T12:02:32.811Z,16.90
2023-04-12T12:05:03.266Z,3.97
2023-04-12T12:07:31.822Z,4.23
2023-04-12T12:10:02.158Z,3.90
2023-04-12T12:12:34.733Z,5.07
2023-04-12T12:15:03.417Z,7.40
2023-04-12T12:17:31.680Z,6.07
2023-04-12T12:20:01.424Z,10.83
2023-04-12T12:22:29.249Z,5.90
2023-04-12T12:24:58.839Z,5.50
2023-04-12T12:27:36.665Z,5.77
2023-04-12T12:30:05.788Z,4.00
2023-04-12T12:32:35.690Z,8.90
2023-04-12T12:35:04.430Z,6.43
2023-04-12T12:37:32.294Z,7.40
2023-04-12T12:40:11.349Z,4.20
2023-04-12T12:42:47.645Z,4.33
2023-04-12T12:45:16.058Z,8.03
2023-04-12T12:47:51.732Z,6.27
2023-04-12T12:50:22.038Z,6.50
2023-04-12T12:52:52.228Z,9.90
2023-04-12T12:55:21.185Z,6.60
2023-04-12T12:58:06.838Z,9.37
2023-04-12T13:00:36.369Z,5.10
2023-04-12T13:03:04.767Z,2.63
2023-04-12T13:05:32.837Z,4.80
2023-04-12T13:08:00.601Z,5.40
2023-04-12T13:10:28.425Z,5.27
2023-04-12T13:12:58.684Z,10.33
2023-04-12T13:15:26.470Z,9.77
2023-04-12T13:17:54.510Z,7.37
2023-04-12T13:20:22.663Z,13.07
2023-04-12T13:22:51.458Z,9.57
2023-04-12T13:25:20.507Z,6.23
2023-04-12T13:27:49.003Z,13.53
2023-04-12T13:30:18.953Z,20.40
2023-04-12T13:32:46.916Z,11.17
2023-04-12T13:35:14.731Z,5.23
2023-04-12T13:37:42.704Z,3.70
2023-04-12T13:40:11.302Z,3.47
2023-04-12T13:42:39.186Z,5.07
2023-04-12T13:45:08.064Z,5.37
2023-04-12T13:47:37.237Z,5.57
2023-04-12T13:50:08.436Z,8.33
2023-04-12T13:52:36.294Z,8.97
2023-04-12T13:55:08.009Z,5.17
2023-04-12T13:57:36.440Z,3.93
2023-04-12T14:00:04.603Z,5.70
2023-04-12T14:02:32.590Z,4.47
2023-04-12T14:05:01.853Z,9.03
2023-04-12T14:07:29.709Z,6.03
2023-04-12T14:09:57.838Z,5.67
2023-04-12T14:12:25.764Z,4.40
2023-04-12T14:14:53.487Z,3.43
2023-04-12T14:17:21.397Z,5.43
2023-04-12T14:19:49.295Z,3.40
2023-04-12T14:22:19.188Z,5.37
2023-04-12T14:24:47.014Z,5.93
2023-04-12T14:27:17.905Z,5.03
2023-04-12T14:29:49.544Z,4.67
2023-04-12T14:32:17.284Z,4.07
2023-04-12T14:34:46.321Z,3.60
2023-04-12T14:37:14.082Z,7.73
2023-04-12T14:39:47.137Z,4.50
2023-04-12T14:42:15.836Z,7.27
2023-04-12T14:44:43.664Z,3.47
2023-04-12T14:47:11.487Z,6.53
2023-04-12T14:49:39.527Z,9.03
2023-04-12T14:52:07.993Z,4.97
2023-04-12T14:54:36.236Z,4.10
2023-04-12T14:57:09.296Z,2.60
2023-04-12T14:59:39.763Z,3.83
2023-04-12T15:02:10.710Z,6.40
2023-04-12T15:04:38.598Z,5.17
2023-04-12T15:07:06.566Z,9.93
2023-04-12T15:09:34.343Z,14.10
2023-04-12T15:12:02.118Z,3.10
2023-04-12T15:14:31.406Z,5.90
2023-04-12T15:16:59.162Z,6.10
2023-04-12T15:19:27.311Z,7.13
2023-04-12T15:21:55.983Z,6.23
2023-04-12T15:24:29.739Z,6.03
2023-04-12T15:26:57.534Z,7.90
2023-04-12T15:29:27.716Z,3.10
2023-04-12T15:31:56.982Z,5.37
2023-04-12T15:34:25.557Z,6.80
2023-04-12T15:36:53.559Z,5.53
2023-04-12T15:39:21.524Z,4.03
2023-04-12T15:41:49.538Z,3.53
2023-04-12T15:44:17.452Z,5.13
2023-04-12T15:46:56.004Z,5.07
2023-04-12T15:49:28.710Z,7.60
2023-04-12T15:51:57.752Z,4.67
2023-04-12T15:54:25.631Z,6.70
2023-04-12T15:56:53.891Z,3.57
2023-04-12T15:59:21.659Z,3.13
2023-04-12T16:01:49.625Z,5.80
2023-04-12T16:04:18.376Z,6.07
2023-04-12T16:06:47.856Z,3.87
2023-04-12T16:09:16.720Z,4.27
2023-04-12T16:11:49.068Z,5.43
2023-04-12T16:14:17.466Z,9.83
2023-04-12T16:16:46.593Z,6.37
2023-04-12T16:19:14.519Z,14.10
2023-04-12T16:21:44.499Z,16.37
2023-04-12T16:24:13.797Z,11.10
2023-04-12T16:26:41.952Z,5.40
2023-04-12T16:29:10.728Z,5.87
2023-04-12T16:31:38.687Z,9.37
2023-04-12T16:34:06.678Z,5.40
2023-04-12T16:36:37.521Z,19.33
2023-04-12T16:39:06.270Z,6.07
2023-04-12T16:41:35.384Z,6.80
2023-04-12T16:44:03.370Z,4.67
2023-04-12T16:46:31.412Z,6.70
2023-04-12T16:48:59.618Z,4.80
2023-04-12T16:51:36.648Z,6.70
2023-04-12T16:54:05.648Z,5.37
2023-04-12T16:56:34.958Z,6.27
2023-04-12T16:59:02.810Z,6.33
2023-04-12T17:01:30.538Z,5.33
2023-04-12T17:04:00.028Z,6.97
2023-04-12T17:06:30.270Z,5.70
2023-04-12T17:08:58.130Z,5.77
2023-04-12T17:11:26.606Z,5.10
2023-04-12T17:13:57.319Z,8.93
2023-04-12T17:16:25.345Z,7.47
2023-04-12T17:18:53.088Z,8.97
2023-04-12T17:21:22.347Z,7.23
2023-04-12T17:23:50.289Z,7.37
2023-04-12T17:26:19.014Z,6.07
2023-04-12T17:28:46.799Z,7.07
2023-04-12T17:31:20.860Z,7.37
2023-04-12T17:33:48.715Z,4.87
2023-04-12T17:36:16.533Z,7.90
2023-04-12T17:38:44.338Z,5.83
2023-04-12T17:41:12.188Z,6.83
2023-04-12T17:43:39.899Z,7.67
2023-04-12T17:46:07.768Z,3.97
2023-04-12T17:48:36.933Z,9.10
2023-04-12T17:51:05.483Z,7.40
2023-04-12T17:53:33.382Z,9.73
2023-04-12T17:56:01.406Z,9.93
2023-04-12T17:58:29.861Z,6.70
2023-04-12T18:00:57.812Z,7.60
2023-04-12T18:03:26.318Z,9.53
2023-04-12T18:05:55.707Z,9.93
2023-04-12T18:08:23.918Z,7.73
2023-04-12T18:10:52.244Z,5.67
2023-04-12T18:13:20.574Z,7.17
2023-04-12T18:15:48.379Z,5.20
2023-04-12T18:18:16.206Z,5.00
2023-04-12T18:20:44.049Z,7.97
2023-04-12T18:23:13.186Z,8.87
2023-04-12T18:25:40.957Z,4.40
2023-04-12T18:28:09.880Z,6.13
2023-04-12T18:30:37.727Z,7.33
2023-04-12T18:33:05.978Z,5.20
2023-04-12T18:35:33.779Z,6.33
2023-04-12T18:38:01.591Z,5.97
2023-04-12T18:40:30.785Z,4.47
2023-04-12T18:42:59.405Z,5.30
2023-04-12T18:45:27.156Z,7.50
2023-04-12T18:47:55.178Z,5.33
2023-04-12T18:50:23.345Z,8.27
2023-04-12T18:52:51.045Z,7.17
2023-04-12T18:55:20.459Z,4.17
2023-04-12T18:57:49.658Z,8.43
2023-04-12T19:00:19.639Z,6.67
2023-04-12T19:02:47.587Z,2.93
2023-04-12T19:05:15.491Z,5.90
2023-04-12T19:07:43.507Z,7.00
2023-04-12T19:10:13.924Z,3.57
2023-04-12T19:12:41.659Z,9.33
2023-04-12T19:15:11.886Z,6.00
2023-04-12T19:17:40.152Z,5.27
2023-04-12T19:20:10.751Z,5.13
2023-04-12T19:22:38.514Z,4.80
2023-04-12T19:25:07.336Z,4.57
2023-04-12T19:27:35.169Z,6.37
2023-04-12T19:30:03.450Z,9.43
2023-04-12T19:32:32.580Z,3.80
2023-04-12T19:35:00.827Z,6.67
2023-04-12T19:37:33.702Z,5.80
2023-04-12T19:40:01.435Z,4.33
2023-04-12T19:42:29.205Z,5.87
2023-04-12T19:44:56.948Z,4.90
2023-04-12T19:47:25.932Z,7.67
2023-04-12T19:49:55.935Z,9.17
2023-04-12T19:52:23.809Z,6.77
2023-04-12T19:54:52.533Z,6.40
2023-04-12T19:57:20.309Z,6.47
2023-04-12T19:59:48.073Z,7.07
2023-04-12T20:02:15.950Z,10.20
2023-04-12T20:04:43.766Z,4.40
2023-04-12T20:07:12.963Z,6.30
2023-04-12T20:09:40.831Z,3.83
2023-04-12T20:12:08.925Z,6.37
2023-04-12T20:14:38.290Z,4.40
2023-04-12T20:17:06.893Z,4.37
2023-04-12T20:19:34.699Z,6.27
2023-04-12T20:22:03.782Z,9.87
2023-04-12T20:24:34.434Z,6.43
2023-04-12T20:27:03.740Z,5.83
2023-04-12T20:29:33.330Z,4.90
2023-04-12T20:32:02.215Z,6.07
2023-04-12T20:34:29.988Z,4.87
2023-04-12T20:36:57.791Z,4.47
2023-04-12T20:39:25.492Z,5.27
2023-04-12T20:41:57.565Z,5.17
2023-04-12T20:44:25.373Z,4.93
2023-04-12T20:46:53.441Z,5.10
2023-04-12T20:49:21.171Z,4.20
2023-04-12T20:51:49.895Z,7.40
2023-04-12T20:54:18.354Z,6.90
2023-04-12T20:56:46.154Z,4.07
2023-04-12T20:59:21.773Z,6.27
2023-04-12T21:01:49.848Z,4.70
2023-04-12T21:04:18.172Z,7.33
2023-04-12T21:06:47.578Z,5.97
2023-04-12T21:09:15.932Z,7.17
2023-04-12T21:11:50.294Z,3.73
2023-04-12T21:14:19.945Z,9.03
2023-04-12T21:16:48.779Z,8.07
2023-04-12T21:19:18.086Z,5.77
2023-04-12T21:21:46.109Z,7.93
2023-04-12T21:24:14.234Z,8.73
2023-04-12T21:26:43.780Z,6.47
2023-04-12T21:29:11.858Z,4.97
2023-04-12T21:31:41.614Z,7.50
2023-04-12T21:34:10.128Z,6.67
2023-04-12T21:36:38.654Z,7.07
2023-04-12T21:39:07.692Z,12.13
2023-04-12T21:41:37.196Z,6.17
2023-04-12T21:44:05.074Z,7.10
2023-04-12T21:46:32.885Z,6.77
2023-04-12T21:49:02.124Z,5.77
2023-04-12T21:51:29.919Z,5.80
2023-04-12T21:53:57.745Z,6.43
2023-04-12T21:56:25.564Z,7.67
2023-04-12T21:58:53.253Z,5.67
2023-04-12T22:01:21.195Z,8.63
2023-04-12T22:03:49.000Z,7.37
2023-04-12T22:06:19.544Z,8.10
2023-04-12T22:08:48.201Z,7.80
2023-04-12T22:11:16.550Z,4.73
2023-04-12T22:13:46.773Z,10.73
2023-04-12T22:16:16.172Z,12.47
2023-04-12T22:18:45.543Z,7.67
2023-04-12T22:21:13.706Z,6.80
2023-04-12T22:23:44.053Z,6.63
2023-04-12T22:26:13.295Z,6.23
2023-04-12T22:28:44.364Z,7.10
2023-04-12T22:31:15.966Z,8.87
2023-04-12T22:33:47.785Z,5.80
2023-04-12T22:36:15.648Z,7.97
2023-04-12T22:38:47.483Z,7.43
2023-04-12T22:41:16.843Z,6.97
2023-04-12T22:43:47.512Z,5.03
2023-04-12T22:46:17.303Z,8.80
2023-04-12T22:48:45.902Z,31.97
2023-04-12T22:51:14.053Z,30.47
2023-04-12T22:53:43.286Z,19.30
2023-04-12T22:56:13.562Z,26.17
2023-04-12T22:58:42.886Z,10.83
2023-04-12T23:01:11.325Z,9.87
2023-04-12T23:03:41.512Z,32.83
2023-04-12T23:06:09.681Z,46.40
2023-04-12T23:08:38.596Z,40.13
2023-04-12T23:11:06.996Z,181.67
2023-04-12T23:13:36.187Z,172.20
2023-04-12T23:16:05.024Z,313.03
2023-04-12T23:18:33.197Z,334.50
2023-04-12T23:21:01.586Z,262.17
2023-04-12T23:23:29.965Z,248.87
2023-04-12T23:25:58.108Z,254.27
2023-04-12T23:28:26.545Z,177.50
2023-04-12T23:30:57.541Z,183.37
2023-04-12T23:33:25.371Z,386.23
2023-04-12T23:35:53.456Z,298.87
2023-04-12T23:38:31.886Z,262.10
2023-04-12T23:41:00.781Z,364.50
2023-04-12T23:43:29.352Z,391.27
2023-04-12T23:45:58.619Z,303.03
2023-04-12T23:48:26.400Z,69.63
2023-04-12T23:50:54.162Z,26.23
2023-04-12T23:53:22.585Z,14.67
2023-04-12T23:55:52.314Z,167.33
2023-04-12T23:58:21.053Z,19.63
